Fairbanks International, AK

8:53 AM AKDT on September 27, 2016 (GMT -0800)
APRSWXNET | | Change Station

Elev 597 ft 64.86 °N, 147.85 °W | Updated 37 minutes ago

Overcast
Overcast
29 °F
Feels Like 29 °F
N
0
Wind Variable Wind from South
Gusts 0.0 mph

Today
High -- | Low -- °F
--% Chance of Precip.
Yesterday
High -- | Low -- °F
Precip. -- in
Pressure 30.10 in
Visibility 10.0 miles
Clouds Scattered Clouds 400 ft
Mostly Cloudy 4000 ft
Overcast 5500 ft
Windchill 29 °F
Dew Point 28 °F
Humidity 96%
Rainfall in
Snow Depth Not available.
7:51 AM 7:31 PM
Waning Crescent, 10% visible
SPECI PAFA 271639Z 00000KT 10SM SCT004 BKN040 OVC055 01/M01 A3010 RMK AO2 T00061006
Pressure 30.10 in
Visibility 10.0 miles
Clouds Scattered Clouds 400 ft
Mostly Cloudy 4000 ft
Overcast 5500 ft
Windchill 29 °F
Dew Point 28 °F
Humidity 96%
Rainfall in
Snow Depth Not available.
7:51 AM 7:31 PM
Waning Crescent, 10% visible
SPECI PAFA 271639Z 00000KT 10SM SCT004 BKN040 OVC055 01/M01 A3010 RMK AO2 T00061006

10-Day Weather Forecast

Almanac

Astronomy

Sep. 27, 2016 Rise Set
Actual Time
Civil Twilight
Nautical Twilight
Astronomical Twilight
Moon
Length of Visible Light
Length of Day
Tomorrow will be .
, % of the Moon is Illuminated

Today's Extremes

State Highs State Lows

Community

WunderPhotos

Upload Photos

1,942,128 photos uploaded!

WunderBlog® & News

Nearby

Air Quality

  Air Quality AQ Index Pollutant
Not available.

Snow Depth

Station Depth Elevation

Earthquake Activity

City Distance Mag. Time & Date
Minimum magnitude displayed is 2.5.

Coastal Water Temperatures

Place Temperature

Stations

Nearby Weather Stations

Station Location Temp. Windchill Dew Point Humidity Wind Precip. Elev Updated Type
                   

Watches & Warnings

There are currently no watches in effect.